Time;durP1;ratioP1;P1;durP2;ratioP2;P2;SDS_P1;SDS_P2;PMS_P1;PMS_P2;Temp;Humidity;BMP_temperature;BMP_pressure;BME280_temperature;BME280_humidity;BME280_pressure;Samples;Min_cycle;Max_cycle;Signal;HPM_P1;HPM_P2
2023/10/28 00:01:02;;;;;;;;;;;;;;;7.06;85.01;99437.39;105873;1256;61237;-74
2023/10/28 00:03:36;;;;;;;;;;;;;;;7.07;85.01;99438.45;105744;1256;124401;-74
2023/10/28 00:06:03;;;;;;;;;;;;;;;7.07;84.91;99439.30;105869;1256;65077;-74
2023/10/28 00:08:30;;;;;;;;;;;;;;;7.06;84.99;99441.38;105878;1256;71387;-74
2023/10/28 00:10:56;;;;;;;;;;;;;;;7.07;85.01;99441.92;105799;1256;124499;-74
2023/10/28 00:13:23;;;;;;;;;;;;;;;7.07;84.98;99442.28;105901;1255;61286;-75
2023/10/28 00:15:50;;;;;;;;;;;;;;;7.08;85.09;99445.97;105822;1256;124592;-74
2023/10/28 00:18:16;;;;;;;;;;;;;;;7.09;85.13;99439.35;105866;1261;66378;-75
2023/10/28 00:20:44;;;;;;;;;;;;;;;7.10;84.93;99440.23;105833;1256;71363;-74
2023/10/28 00:23:11;;;;;;;;;;;;;;;7.09;84.91;99440.03;108897;1256;124805;-75
2023/10/28 00:25:39;;;;;;;;;;;;;;;7.05;84.92;99441.02;107572;1255;61258;-75
2023/10/28 00:28:06;;;;;;;;;;;;;;;7.04;85.05;99440.33;105822;1260;124715;-75
2023/10/28 00:30:33;;;;;;;;;;;;;;;7.06;85.04;99442.95;105961;1260;65042;-75
2023/10/28 00:33:00;;;;;;;;;;;;;;;7.08;85.03;99442.82;105810;1259;124589;-75
2023/10/28 00:35:28;;;;;;;;;;;;;;;7.04;84.80;99441.89;105796;1255;61234;-74
2023/10/28 00:37:54;;;;;;;;;;;;;;;6.98;84.70;99439.67;105967;1261;61410;-75
2023/10/28 00:40:24;;;;;;;;;;;;;;;6.97;84.79;99441.94;105902;1260;125090;-75
2023/10/28 00:42:50;;;;;;;;;;;;;;;6.95;84.68;99441.18;105914;1261;65004;-75
2023/10/28 00:45:17;;;;;;;;;;;;;;;6.95;84.75;99442.04;105876;1261;124623;-75
2023/10/28 00:47:45;;;;;;;;;;;;;;;6.94;84.75;99439.59;105775;1256;61261;-74
2023/10/28 00:50:14;;;;;;;;;;;;;;;6.92;84.70;99440.80;105796;1256;61279;-74
2023/10/28 00:52:44;;;;;;;;;;;;;;;6.90;84.68;99442.50;105750;1256;124653;-75
2023/10/28 00:55:11;;;;;;;;;;;;;;;6.89;84.73;99442.64;105943;1256;65082;-75
2023/10/28 00:57:38;;;;;;;;;;;;;;;6.87;84.69;99448.87;105741;1256;124413;-75
2023/10/28 01:00:08;;;;;;;;;;;;;;;6.83;84.64;99449.52;105938;1260;61258;-75
2023/10/28 01:02:35;;;;;;;;;;;;;;;6.78;84.69;99452.39;105918;1256;61579;-74
2023/10/28 01:05:02;;;;;;;;;;;;;;;6.75;84.69;99447.44;105795;1262;125303;-73
2023/10/28 01:07:30;;;;;;;;;;;;;;;6.76;84.80;99446.41;105851;1256;64974;-74
2023/10/28 01:09:56;;;;;;;;;;;;;;;6.75;84.81;99444.11;105771;1256;124790;-73
2023/10/28 01:12:23;;;;;;;;;;;;;;;6.74;84.68;99446.20;105942;1260;59389;-74
2023/10/28 01:14:50;;;;;;;;;;;;;;;6.74;84.90;99443.77;105883;1260;124558;-74
2023/10/28 01:17:16;;;;;;;;;;;;;;;6.76;84.93;99445.73;105911;1256;73354;-74
2023/10/28 01:19:43;;;;;;;;;;;;;;;6.77;84.96;99450.09;105834;1257;61041;-74
2023/10/28 01:22:09;;;;;;;;;;;;;;;6.78;84.92;99448.02;105817;1256;124577;-74
2023/10/28 01:24:36;;;;;;;;;;;;;;;6.78;84.94;99443.14;105915;1259;61177;-74
2023/10/28 01:27:03;;;;;;;;;;;;;;;6.81;84.98;99444.60;105759;1258;124733;-74
2023/10/28 01:29:30;;;;;;;;;;;;;;;6.83;85.02;99447.41;105917;1256;75242;-74
2023/10/28 01:31:56;;;;;;;;;;;;;;;6.84;84.87;99446.58;105992;1261;66347;-73
2023/10/28 01:34:23;;;;;;;;;;;;;;;6.82;84.77;99445.31;105884;1257;125522;-73
2023/10/28 01:36:50;;;;;;;;;;;;;;;6.82;84.79;99444.27;105844;1256;61224;-73
2023/10/28 01:39:16;;;;;;;;;;;;;;;6.84;84.91;99439.24;105842;1260;124811;-74
2023/10/28 01:41:43;;;;;;;;;;;;;;;6.88;84.93;99444.90;105915;1260;74661;-74
2023/10/28 01:44:11;;;;;;;;;;;;;;;6.87;84.85;99444.35;105919;1260;66390;-74
2023/10/28 01:46:38;;;;;;;;;;;;;;;6.86;84.76;99447.81;105808;1261;124820;-75
2023/10/28 01:49:04;;;;;;;;;;;;;;;6.86;84.82;99448.86;105846;1265;61238;-75
2023/10/28 01:51:31;;;;;;;;;;;;;;;6.87;84.88;99452.88;105793;1256;125055;-74
2023/10/28 01:53:57;;;;;;;;;;;;;;;6.87;84.87;99456.73;105855;1260;73365;-75
2023/10/28 01:56:24;;;;;;;;;;;;;;;6.88;84.80;99452.21;105915;1261;61246;-73
2023/10/28 01:58:51;;;;;;;;;;;;;;;6.88;84.79;99457.10;105827;1261;124546;-73
2023/10/28 02:01:17;;;;;;;;;;;;;;;6.89;84.84;99454.84;105926;1261;61159;-73
2023/10/28 02:03:44;;;;;;;;;;;;;;;6.89;84.77;99455.00;105727;1261;124416;-73
2023/10/28 02:06:10;;;;;;;;;;;;;;;6.89;84.77;99453.45;105982;1257;72635;-73
2023/10/28 02:08:37;;;;;;;;;;;;;;;6.91;84.92;99456.45;105955;1256;64017;-73
2023/10/28 02:11:03;;;;;;;;;;;;;;;6.92;84.84;99460.48;105744;1257;125027;-74
2023/10/28 02:13:30;;;;;;;;;;;;;;;6.93;84.82;99462.08;105799;1260;61169;-73
2023/10/28 02:15:57;;;;;;;;;;;;;;;6.93;84.79;99464.00;105765;1260;124650;-73
2023/10/28 02:18:24;;;;;;;;;;;;;;;6.93;84.87;99469.92;105894;1260;73102;-73
2023/10/28 02:20:50;;;;;;;;;;;;;;;6.92;84.65;99474.79;105774;1260;124580;-74
2023/10/28 02:23:17;;;;;;;;;;;;;;;6.93;84.75;99472.38;107671;1260;71094;-74
2023/10/28 02:25:44;;;;;;;;;;;;;;;6.95;84.82;99475.03;105795;1260;61182;-74
2023/10/28 02:28:11;;;;;;;;;;;;;;;6.96;84.74;99476.59;105757;1255;124581;-74
2023/10/28 02:30:38;;;;;;;;;;;;;;;6.97;84.74;99482.02;105825;1256;73997;-73
2023/10/28 02:33:05;;;;;;;;;;;;;;;6.96;84.61;99478.89;105889;1260;125454;-74
2023/10/28 02:35:32;;;;;;;;;;;;;;;6.92;84.48;99477.40;105873;1261;71913;-73
2023/10/28 02:37:59;;;;;;;;;;;;;;;6.88;84.52;99482.38;109067;1256;60149;-74
2023/10/28 02:40:25;;;;;;;;;;;;;;;6.86;84.54;99483.91;108076;1260;124485;-73
2023/10/28 02:42:52;;;;;;;;;;;;;;;6.84;84.45;99488.77;105789;1260;74360;-74
2023/10/28 02:45:19;;;;;;;;;;;;;;;6.82;84.48;99480.34;105662;1256;124717;-74
2023/10/28 02:47:45;;;;;;;;;;;;;;;6.83;84.64;99486.64;105701;1260;73132;-74
2023/10/28 02:50:12;;;;;;;;;;;;;;;6.85;84.70;99485.10;105915;1260;61320;-73
2023/10/28 02:52:39;;;;;;;;;;;;;;;6.86;84.63;99488.27;105763;1257;124652;-76
2023/10/28 02:55:06;;;;;;;;;;;;;;;6.85;84.58;99488.10;105992;1260;74017;-74
2023/10/28 02:57:32;;;;;;;;;;;;;;;6.85;84.67;99491.03;105770;1256;124545;-74
2023/10/28 02:59:59;;;;;;;;;;;;;;;6.86;84.70;99490.88;105847;1260;72461;-75
2023/10/28 03:02:26;;;;;;;;;;;;;;;6.86;84.72;99494.38;105779;1262;61374;-75
2023/10/28 03:04:52;;;;;;;;;;;;;;;6.86;84.74;99499.27;105819;1256;124550;-75
2023/10/28 03:07:19;;;;;;;;;;;;;;;6.87;84.84;99495.42;105744;1262;73855;-75
2023/10/28 03:09:45;;;;;;;;;;;;;;;6.86;84.74;99496.64;105776;1255;124589;-74
2023/10/28 03:12:12;;;;;;;;;;;;;;;6.88;84.79;99498.42;105849;1259;61366;-74
2023/10/28 03:14:39;;;;;;;;;;;;;;;6.88;84.69;99498.44;105858;1261;61176;-75
2023/10/28 03:17:05;;;;;;;;;;;;;;;6.88;84.68;99502.61;105832;1260;124686;-75
2023/10/28 03:19:32;;;;;;;;;;;;;;;6.87;84.69;99502.24;106090;1260;73312;-75
2023/10/28 03:21:58;;;;;;;;;;;;;;;6.87;84.65;99507.83;105767;1260;124397;-75
2023/10/28 03:24:25;;;;;;;;;;;;;;;6.88;84.74;99508.54;105828;1261;73781;-75
2023/10/28 03:26:51;;;;;;;;;;;;;;;6.88;84.70;99512.89;105786;1260;124554;-75
2023/10/28 03:29:18;;;;;;;;;;;;;;;6.87;84.59;99512.17;105894;1257;62186;-74
2023/10/28 03:31:45;;;;;;;;;;;;;;;6.87;84.66;99517.06;105996;1262;74662;-74
2023/10/28 03:34:11;;;;;;;;;;;;;;;6.87;84.57;99515.48;105735;1257;124936;-74
2023/10/28 03:36:38;;;;;;;;;;;;;;;6.87;84.60;99519.16;105831;1262;72297;-74
2023/10/28 03:39:05;;;;;;;;;;;;;;;6.87;84.59;99518.48;105818;1260;124793;-75
2023/10/28 03:41:32;;;;;;;;;;;;;;;6.89;84.55;99524.77;105862;1260;61250;-75
2023/10/28 03:43:59;;;;;;;;;;;;;;;6.91;84.62;99525.53;105791;1256;73393;-75
2023/10/28 03:46:26;;;;;;;;;;;;;;;6.91;84.47;99529.70;105693;1260;124768;-75
2023/10/28 03:48:53;;;;;;;;;;;;;;;6.91;84.47;99531.79;105818;1262;72688;-75
2023/10/28 03:51:20;;;;;;;;;;;;;;;6.92;84.53;99533.20;105807;1260;124735;-74
2023/10/28 03:53:46;;;;;;;;;;;;;;;6.92;84.52;99534.44;105816;1260;61328;-74
2023/10/28 03:56:13;;;;;;;;;;;;;;;6.94;84.39;99529.40;105932;1262;61247;-74
2023/10/28 03:58:40;;;;;;;;;;;;;;;6.92;84.31;99532.33;105756;1257;125076;-75
2023/10/28 04:01:06;;;;;;;;;;;;;;;6.89;84.18;99535.08;105771;1261;72726;-74
2023/10/28 04:03:33;;;;;;;;;;;;;;;6.88;84.16;99532.25;105633;1261;124836;-75
2023/10/28 04:06:00;;;;;;;;;;;;;;;6.90;84.33;99534.73;105852;1257;61265;-73
2023/10/28 04:08:27;;;;;;;;;;;;;;;6.92;84.43;99538.27;105786;1260;74710;-74
2023/10/28 04:10:53;;;;;;;;;;;;;;;6.92;84.24;99539.14;105801;1261;124441;-74
2023/10/28 04:13:20;;;;;;;;;;;;;;;6.89;84.14;99543.44;105876;1260;72428;-74
2023/10/28 04:15:47;;;;;;;;;;;;;;;6.88;84.11;99544.98;105790;1260;125090;-74
2023/10/28 04:18:13;;;;;;;;;;;;;;;6.85;84.10;99554.34;105923;1260;61247;-74
2023/10/28 04:20:40;;;;;;;;;;;;;;;6.85;84.25;99554.86;105925;1259;74635;-80
2023/10/28 04:23:06;;;;;;;;;;;;;;;6.85;84.39;99558.70;105669;1256;124208;-80
2023/10/28 04:25:33;;;;;;;;;;;;;;;6.86;84.40;99558.71;105897;1260;71863;-80
2023/10/28 04:28:00;;;;;;;;;;;;;;;6.89;84.47;99558.09;105870;1260;124384;-75
2023/10/28 04:30:26;;;;;;;;;;;;;;;6.91;84.40;99562.66;105857;1258;61294;-78
2023/10/28 04:32:53;;;;;;;;;;;;;;;6.92;84.36;99563.23;105866;1258;125012;-77
2023/10/28 04:35:20;;;;;;;;;;;;;;;6.93;84.34;99566.02;105727;1257;65138;-79
2023/10/28 04:37:46;;;;;;;;;;;;;;;6.95;84.40;99565.71;105819;1260;71759;-79
2023/10/28 04:40:13;;;;;;;;;;;;;;;6.98;84.46;99566.13;105752;1260;124442;-79
2023/10/28 04:42:39;;;;;;;;;;;;;;;7.00;84.41;99565.11;105810;1258;61238;-80
2023/10/28 04:45:06;;;;;;;;;;;;;;;7.02;84.37;99568.64;105720;1260;124918;-80
2023/10/28 04:47:33;;;;;;;;;;;;;;;7.01;84.27;99570.91;105846;1260;66046;-81
2023/10/28 04:49:59;;;;;;;;;;;;;;;7.01;84.29;99579.09;105802;1257;72733;-79
2023/10/28 04:52:26;;;;;;;;;;;;;;;6.99;84.26;99576.09;105736;1262;124583;-79
2023/10/28 04:54:53;;;;;;;;;;;;;;;6.99;84.09;99579.23;105808;1260;61165;-79
2023/10/28 04:57:21;;;;;;;;;;;;;;;6.99;84.23;99579.91;105744;1258;124787;-79
2023/10/28 04:59:49;;;;;;;;;;;;;;;6.99;84.29;99584.98;105824;1260;65795;-78
2023/10/28 05:02:16;;;;;;;;;;;;;;;6.99;84.29;99586.02;105811;1261;72773;-78
2023/10/28 05:04:42;;;;;;;;;;;;;;;6.98;84.33;99584.27;105766;1260;124625;-78
2023/10/28 05:07:09;;;;;;;;;;;;;;;6.99;84.37;99587.95;105787;1260;61228;-78
2023/10/28 05:09:36;;;;;;;;;;;;;;;6.99;84.37;99590.05;105805;1260;124717;-78
2023/10/28 05:12:03;;;;;;;;;;;;;;;6.99;84.42;99590.91;105806;1260;66222;-79
2023/10/28 05:14:29;;;;;;;;;;;;;;;7.00;84.42;99593.55;105833;1258;71437;-79
2023/10/28 05:16:56;;;;;;;;;;;;;;;6.98;84.37;99591.78;105774;1261;124449;-79
2023/10/28 05:19:22;;;;;;;;;;;;;;;7.00;84.42;99597.38;105840;1260;69062;-79
2023/10/28 05:21:49;;;;;;;;;;;;;;;7.00;84.41;99601.91;105710;1258;124817;-79
2023/10/28 05:24:16;;;;;;;;;;;;;;;6.99;84.32;99605.04;105884;1260;65026;-78
2023/10/28 05:26:43;;;;;;;;;;;;;;;6.98;84.38;99608.52;105873;1257;72736;-79
2023/10/28 05:29:10;;;;;;;;;;;;;;;6.99;84.50;99613.23;105826;1261;124265;-79
2023/10/28 05:31:36;;;;;;;;;;;;;;;7.01;84.42;99614.84;105837;1260;61136;-80
2023/10/28 05:34:03;;;;;;;;;;;;;;;7.01;84.46;99619.20;105677;1258;124558;-79
2023/10/28 05:36:30;;;;;;;;;;;;;;;7.02;84.52;99618.01;105751;1260;66942;-79
2023/10/28 05:38:59;;;;;;;;;;;;;;;7.03;84.43;99621.86;105571;1257;124612;-78
2023/10/28 05:41:25;;;;;;;;;;;;;;;7.04;84.42;99623.10;107431;1260;61710;-80
2023/10/28 05:43:52;;;;;;;;;;;;;;;7.04;84.51;99626.24;105784;1258;61241;-80
2023/10/28 05:46:22;;;;;;;;;;;;;;;7.02;84.33;99625.68;105794;1257;124715;-81
2023/10/28 05:48:50;;;;;;;;;;;;;;;7.02;84.41;99627.25;105892;1255;64727;-80
2023/10/28 05:51:17;;;;;;;;;;;;;;;7.04;84.38;99632.16;105801;1260;125020;-79
2023/10/28 05:53:43;;;;;;;;;;;;;;;7.03;84.31;99633.54;105909;1256;61361;-79
2023/10/28 05:56:10;;;;;;;;;;;;;;;7.01;84.28;99632.47;105865;1257;61257;-80
2023/10/28 05:58:37;;;;;;;;;;;;;;;7.02;84.45;99638.07;105778;1258;124782;-80
2023/10/28 06:01:04;;;;;;;;;;;;;;;7.04;84.40;99642.63;105750;1257;65515;-79
2023/10/28 06:03:30;;;;;;;;;;;;;;;7.04;84.39;99641.59;105769;1260;124571;-79
2023/10/28 06:05:57;;;;;;;;;;;;;;;7.04;84.17;99644.56;105845;1258;61273;-79
2023/10/28 06:08:24;;;;;;;;;;;;;;;7.06;84.38;99645.81;105793;1257;61277;-79
2023/10/28 06:10:50;;;;;;;;;;;;;;;7.09;84.48;99653.73;105718;1257;124357;-80
2023/10/28 06:13:17;;;;;;;;;;;;;;;7.12;84.46;99659.38;105859;1260;61362;-79
2023/10/28 06:15:44;;;;;;;;;;;;;;;7.14;84.42;99662.75;105728;1256;124460;-78
2023/10/28 06:18:11;;;;;;;;;;;;;;;7.16;84.51;99664.89;105816;1257;61250;-80
2023/10/28 06:20:39;;;;;;;;;;;;;;;7.19;84.41;99667.04;105860;1260;61276;-81
2023/10/28 06:23:06;;;;;;;;;;;;;;;7.17;84.24;99669.77;105844;1260;124379;-80
2023/10/28 06:25:34;;;;;;;;;;;;;;;7.15;84.13;99675.49;106012;1258;64784;-83
2023/10/28 06:28:02;;;;;;;;;;;;;;;7.12;84.13;99678.07;105913;1260;124440;-81
2023/10/28 06:30:28;;;;;;;;;;;;;;;7.10;84.05;99682.02;105953;1261;61229;-82
2023/10/28 06:32:55;;;;;;;;;;;;;;;7.05;83.95;99684.70;105988;1257;124534;-80
2023/10/28 06:35:22;;;;;;;;;;;;;;;6.99;83.93;99688.76;105841;1256;73429;-81
2023/10/28 06:37:48;;;;;;;;;;;;;;;6.98;84.09;99689.44;105925;1259;64886;-81
2023/10/28 06:40:15;;;;;;;;;;;;;;;6.96;84.04;99695.33;105834;1260;124554;-81
2023/10/28 06:42:44;;;;;;;;;;;;;;;6.91;84.04;99695.20;105963;1259;61192;-81
2023/10/28 06:45:11;;;;;;;;;;;;;;;6.92;84.32;99704.32;105813;1260;125663;-82
2023/10/28 06:47:37;;;;;;;;;;;;;;;6.93;84.24;99708.16;105963;1260;75639;-81
2023/10/28 06:50:06;;;;;;;;;;;;;;;6.93;84.37;99715.48;105881;1258;66250;-82
2023/10/28 06:52:33;;;;;;;;;;;;;;;6.98;84.53;99715.60;105835;1255;125641;-81
2023/10/28 06:55:00;;;;;;;;;;;;;;;7.04;84.60;99717.31;105955;1260;61223;-81
2023/10/28 06:57:27;;;;;;;;;;;;;;;7.12;84.66;99719.40;105884;1257;124594;-82
2023/10/28 06:59:53;;;;;;;;;;;;;;;7.18;84.72;99724.08;105959;1258;73445;-83
2023/10/28 07:02:21;;;;;;;;;;;;;;;7.25;84.64;99723.33;106458;1260;64722;-81
2023/10/28 07:04:47;;;;;;;;;;;;;;;7.31;84.57;99729.41;105791;1261;124402;-80
2023/10/28 07:07:14;;;;;;;;;;;;;;;7.38;84.44;99731.65;105906;1258;61178;-80
2023/10/28 07:09:41;;;;;;;;;;;;;;;7.46;84.50;99733.76;105833;1260;124427;-83
2023/10/28 07:12:07;;;;;;;;;;;;;;;7.54;84.45;99736.89;106200;1260;74376;-81
2023/10/28 07:14:34;;;;;;;;;;;;;;;7.61;84.52;99736.68;106006;1257;67147;-80
2023/10/28 07:17:01;;;;;;;;;;;;;;;7.69;84.39;99743.83;105956;1258;124596;-83
2023/10/28 07:19:27;;;;;;;;;;;;;;;7.76;84.37;99745.55;107360;1256;59696;-84
2023/10/28 07:21:54;;;;;;;;;;;;;;;7.85;84.39;99750.95;106465;1255;124542;-85
2023/10/28 07:24:21;;;;;;;;;;;;;;;7.94;84.38;99745.20;106551;1256;73449;-84
2023/10/28 07:26:47;;;;;;;;;;;;;;;8.00;84.03;99750.90;106659;1256;61196;-84
2023/10/28 07:29:14;;;;;;;;;;;;;;;7.99;83.61;99752.09;107042;1260;71897;-78
2023/10/28 07:31:40;;;;;;;;;;;;;;;8.02;83.65;99758.44;106997;1258;61274;-79
2023/10/28 07:34:07;;;;;;;;;;;;;;;8.03;83.40;99760.57;107049;1258;125538;-78
2023/10/28 07:36:34;;;;;;;;;;;;;;;8.05;83.35;99764.10;106754;1256;74748;-79
2023/10/28 07:39:03;;;;;;;;;;;;;;;8.14;83.49;99764.27;106670;1260;124592;-75
2023/10/28 07:41:30;;;;;;;;;;;;;;;8.13;83.11;99769.14;106085;1257;73229;-76
2023/10/28 07:43:56;;;;;;;;;;;;;;;8.07;82.86;99773.05;105899;1256;61292;-76
2023/10/28 07:46:24;;;;;;;;;;;;;;;8.00;82.81;99776.05;105633;1261;124357;-77
2023/10/28 07:48:51;;;;;;;;;;;;;;;7.95;83.03;99781.02;105796;1257;73412;-76
2023/10/28 07:51:17;;;;;;;;;;;;;;;7.92;83.07;99779.04;105722;1255;125067;-75
2023/10/28 07:53:48;;;;;;;;;;;;;;;7.90;83.14;99778.46;105817;1255;72426;-77
2023/10/28 07:56:18;;;;;;;;;;;;;;;7.84;83.11;99781.14;105763;1261;61259;-77
2023/10/28 07:58:45;;;;;;;;;;;;;;;7.79;83.13;99787.17;105768;1256;124416;-75
2023/10/28 08:01:21;;;;;;;;;;;;;;;7.78;83.18;99794.83;105888;1256;74648;-75
2023/10/28 08:03:47;;;;;;;;;;;;;;;7.74;83.21;99799.46;105798;1257;124611;-76
2023/10/28 08:06:15;;;;;;;;;;;;;;;7.72;83.24;99800.80;105949;1259;71237;-76
2023/10/28 08:08:41;;;;;;;;;;;;;;;7.70;83.45;99799.73;105979;1257;61333;-75
2023/10/28 08:11:08;;;;;;;;;;;;;;;7.71;83.59;99804.11;105801;1256;125673;-75
2023/10/28 08:13:35;;;;;;;;;;;;;;;7.70;83.65;99802.52;105988;1261;74977;-75
2023/10/28 08:16:03;;;;;;;;;;;;;;;7.70;83.70;99807.58;105942;1256;124409;-75
2023/10/28 08:18:33;;;;;;;;;;;;;;;7.68;83.66;99809.45;109135;1256;71353;-76
2023/10/28 08:21:00;;;;;;;;;;;;;;;7.68;83.74;99810.70;109098;1257;124695;-76
2023/10/28 08:23:28;;;;;;;;;;;;;;;7.69;83.84;99811.57;106230;1255;61242;-75
2023/10/28 08:25:58;;;;;;;;;;;;;;;7.68;83.69;99813.83;105877;1259;73057;-77
2023/10/28 08:28:26;;;;;;;;;;;;;;;7.65;83.71;99813.05;105926;1260;124951;-75
2023/10/28 08:30:53;;;;;;;;;;;;;;;7.64;83.68;99817.75;105952;1257;72715;-77
2023/10/28 08:33:22;;;;;;;;;;;;;;;7.64;83.81;99819.65;105869;1260;124574;-76
2023/10/28 08:35:49;;;;;;;;;;;;;;;7.66;83.93;99820.59;105891;1255;60155;-76
2023/10/28 08:38:16;;;;;;;;;;;;;;;7.68;83.95;99822.02;105911;1257;73454;-76
2023/10/28 08:40:43;;;;;;;;;;;;;;;7.73;83.98;99830.36;105809;1257;124807;-76
2023/10/28 08:43:10;;;;;;;;;;;;;;;7.79;84.06;99832.56;105940;1260;71866;-77
2023/10/28 08:45:37;;;;;;;;;;;;;;;7.85;84.11;99834.43;105932;1260;124527;-76
2023/10/28 08:48:04;;;;;;;;;;;;;;;7.91;84.17;99833.87;106058;1259;61352;-76
2023/10/28 08:50:30;;;;;;;;;;;;;;;7.97;84.26;99837.33;106055;1260;72860;-76
2023/10/28 08:52:57;;;;;;;;;;;;;;;8.03;84.13;99835.86;105859;1256;124536;-77
2023/10/28 08:55:24;;;;;;;;;;;;;;;8.05;83.94;99837.48;106010;1257;72705;-78
2023/10/28 08:57:51;;;;;;;;;;;;;;;8.04;83.78;99840.61;105800;1260;124360;-75
2023/10/28 09:00:19;;;;;;;;;;;;;;;8.06;83.81;99845.88;105836;1260;61213;-76
2023/10/28 09:02:46;;;;;;;;;;;;;;;8.07;83.65;99845.39;105908;1260;74697;-77
2023/10/28 09:05:14;;;;;;;;;;;;;;;8.10;83.76;99848.94;105851;1260;124648;-76
2023/10/28 09:07:43;;;;;;;;;;;;;;;8.14;83.75;99852.52;105761;1260;72515;-76
2023/10/28 09:10:10;;;;;;;;;;;;;;;8.16;83.73;99849.94;108928;1255;123901;-77
2023/10/28 09:12:37;;;;;;;;;;;;;;;8.23;83.75;99851.30;106108;1256;61255;-76
2023/10/28 09:15:03;;;;;;;;;;;;;;;8.26;83.64;99853.81;105669;1255;123858;-77
2023/10/28 09:17:30;;;;;;;;;;;;;;;8.30;83.71;99855.98;106296;1260;64691;-83
2023/10/28 09:19:57;;;;;;;;;;;;;;;8.34;83.69;99858.70;106191;1260;149990;-77
2023/10/28 09:22:24;;;;;;;;;;;;;;;8.38;83.50;99859.98;105760;1256;124077;-74
2023/10/28 09:24:52;;;;;;;;;;;;;;;8.36;83.31;99862.92;105832;1260;61232;-75
2023/10/28 09:27:19;;;;;;;;;;;;;;;8.34;83.22;99863.94;108926;1255;123904;-76
2023/10/28 09:29:46;;;;;;;;;;;;;;;8.35;83.33;99864.13;108203;1260;66074;-74
2023/10/28 09:32:13;;;;;;;;;;;;;;;8.36;83.25;99867.98;105874;1260;72825;-81
2023/10/28 09:34:40;;;;;;;;;;;;;;;8.36;83.15;99870.79;105755;1256;124613;-74
2023/10/28 09:37:07;;;;;;;;;;;;;;;8.37;83.15;99877.27;105809;1259;61133;-74
2023/10/28 09:39:33;;;;;;;;;;;;;;;8.38;83.07;99877.45;105650;1256;124748;-74
2023/10/28 09:42:00;;;;;;;;;;;;;;;8.34;83.06;99879.50;105777;1256;65389;-74
2023/10/28 09:44:27;;;;;;;;;;;;;;;8.33;83.04;99883.65;105888;1260;72161;-74
2023/10/28 09:46:58;;;;;;;;;;;;;;;8.33;83.27;99879.29;105708;1257;125312;-74
2023/10/28 09:49:26;;;;;;;;;;;;;;;8.32;83.13;99881.91;106025;1257;61260;-75
2023/10/28 09:51:53;;;;;;;;;;;;;;;8.27;82.81;99882.48;105928;1256;125063;-75
2023/10/28 09:54:20;;;;;;;;;;;;;;;8.20;82.46;99887.77;105897;1258;64875;-74
2023/10/28 09:56:52;;;;;;;;;;;;;;;8.11;82.20;99883.20;105872;1255;70757;-75
2023/10/28 09:59:20;;;;;;;;;;;;;;;8.05;82.22;99886.06;108199;1256;61282;-75
2023/10/28 10:01:55;;;;;;;;;;;;;;;8.02;82.32;99888.80;105905;1256;61332;-74
2023/10/28 10:04:22;;;;;;;;;;;;;;;8.03;82.39;99888.10;105818;1258;124575;-77
2023/10/28 10:06:48;;;;;;;;;;;;;;;8.10;82.39;99894.54;105966;1260;66310;-77
2023/10/28 10:09:18;;;;;;;;;;;;;;;8.10;82.23;99891.59;105929;1255;125247;-75
2023/10/28 10:11:45;;;;;;;;;;;;;;;8.17;82.34;99891.55;105834;1256;61380;-75
2023/10/28 10:14:12;;;;;;;;;;;;;;;8.27;82.37;99894.91;105928;1256;61296;-74
2023/10/28 10:16:39;;;;;;;;;;;;;;;8.39;82.25;99896.55;105667;1256;124613;-74
2023/10/28 10:19:10;;;;;;;;;;;;;;;8.46;82.04;99898.13;105720;1256;66246;-74
2023/10/28 10:21:37;;;;;;;;;;;;;;;8.48;81.47;99901.46;106827;1259;125647;-74
2023/10/28 10:24:04;;;;;;;;;;;;;;;8.48;81.39;99901.81;105760;1255;61280;-75
2023/10/28 10:26:34;;;;;;;;;;;;;;;8.50;81.38;99906.77;105791;1260;61264;-75
2023/10/28 10:29:03;;;;;;;;;;;;;;;8.56;81.42;99910.55;105691;1257;123874;-75
2023/10/28 10:31:33;;;;;;;;;;;;;;;8.56;81.14;99910.90;107428;1256;64652;-73
2023/10/28 10:34:09;;;;;;;;;;;;;;;8.53;80.88;99912.77;105822;1260;123729;-74
2023/10/28 10:36:40;;;;;;;;;;;;;;;8.50;80.68;99914.97;106021;1260;61307;-75
2023/10/28 10:39:16;;;;;;;;;;;;;;;8.47;80.53;99914.73;105868;1256;124740;-74
2023/10/28 10:41:44;;;;;;;;;;;;;;;8.40;80.27;99922.44;109029;1255;73736;-74
2023/10/28 10:44:20;;;;;;;;;;;;;;;8.33;80.26;99927.89;108898;1256;64588;-75
2023/10/28 10:46:50;;;;;;;;;;;;;;;8.30;80.48;99927.13;108858;1260;124475;-75
2023/10/28 10:49:16;;;;;;;;;;;;;;;8.28;80.37;99932.84;108977;1255;59920;-75
2023/10/28 10:51:44;;;;;;;;;;;;;;;8.25;80.38;99933.13;108209;1256;126250;-74
2023/10/28 10:54:11;;;;;;;;;;;;;;;8.25;80.44;99934.52;107034;1256;74697;-74
2023/10/28 10:56:38;;;;;;;;;;;;;;;8.33;80.49;99935.92;105996;1256;66215;-75
2023/10/28 10:59:04;;;;;;;;;;;;;;;8.40;80.40;99942.70;105684;1255;125124;-79
2023/10/28 11:01:31;;;;;;;;;;;;;;;8.47;80.54;99939.22;105869;1258;61228;-80
2023/10/28 11:03:58;;;;;;;;;;;;;;;8.62;80.50;99943.19;105785;1256;126342;-78
2023/10/28 11:06:25;;;;;;;;;;;;;;;8.75;80.41;99946.95;106023;1256;74080;-79
2023/10/28 11:08:52;;;;;;;;;;;;;;;8.86;80.23;99951.87;105839;1259;124976;-77
2023/10/28 11:11:18;;;;;;;;;;;;;;;8.89;79.84;99951.23;105773;1255;72845;-81
2023/10/28 11:13:45;;;;;;;;;;;;;;;8.91;79.69;99955.11;105864;1255;59798;-79
2023/10/28 11:16:19;;;;;;;;;;;;;;;8.92;79.50;99954.63;105833;1260;124076;-79
2023/10/28 11:18:45;;;;;;;;;;;;;;;8.87;79.06;99954.34;105862;1256;74464;-79
2023/10/28 11:21:12;;;;;;;;;;;;;;;8.78;79.00;99954.52;106043;1255;123971;-79
2023/10/28 11:23:39;;;;;;;;;;;;;;;8.72;79.00;99956.88;106118;1256;73719;-80
2023/10/28 11:26:05;;;;;;;;;;;;;;;8.70;78.95;99959.62;106113;1257;59663;-79
2023/10/28 11:28:38;;;;;;;;;;;;;;;8.63;78.75;99961.92;105891;1256;124628;-80
2023/10/28 11:31:04;;;;;;;;;;;;;;;8.58;78.85;99963.92;109134;1255;74706;-79
2023/10/28 11:33:33;;;;;;;;;;;;;;;8.56;78.75;99965.12;108999;1255;124792;-79
2023/10/28 11:36:01;;;;;;;;;;;;;;;8.53;78.65;99964.19;109140;1255;73936;-79
2023/10/28 11:38:30;;;;;;;;;;;;;;;8.52;78.77;99966.23;109031;1255;59725;-79
2023/10/28 11:41:15;;;;;;;;;;;;;;;8.54;78.76;99967.54;108203;1255;124852;-78
2023/10/28 11:43:41;;;;;;;;;;;;;;;8.60;78.90;99966.58;105945;1260;73323;-78
2023/10/28 11:46:08;;;;;;;;;;;;;;;8.67;78.87;99967.42;105943;1261;124912;-79
2023/10/28 11:48:35;;;;;;;;;;;;;;;8.69;78.42;99971.48;106025;1256;71538;-80
2023/10/28 11:51:01;;;;;;;;;;;;;;;8.66;78.29;99976.51;105844;1257;124830;-79
2023/10/28 11:53:28;;;;;;;;;;;;;;;8.68;78.35;99972.70;105960;1260;61715;-79
2023/10/28 11:55:55;;;;;;;;;;;;;;;8.74;78.26;99974.73;106016;1254;73698;-80
2023/10/28 11:58:24;;;;;;;;;;;;;;;8.78;78.18;99973.40;105798;1256;123877;-80
2023/10/28 12:00:53;;;;;;;;;;;;;;;8.86;78.37;99972.52;105918;1256;71100;-80
2023/10/28 12:03:19;;;;;;;;;;;;;;;8.93;78.15;99969.00;109006;1256;124108;-79
2023/10/28 12:05:46;;;;;;;;;;;;;;;8.97;78.04;99970.83;109135;1255;59021;-81
2023/10/28 12:08:13;;;;;;;;;;;;;;;9.03;78.01;99974.93;109086;1255;73726;-82
2023/10/28 12:10:46;;;;;;;;;;;;;;;9.10;77.97;99978.23;108846;1255;124465;-81
2023/10/28 12:13:13;;;;;;;;;;;;;;;9.14;77.75;99981.98;109099;1254;72484;-82
2023/10/28 12:15:39;;;;;;;;;;;;;;;9.19;77.50;99986.27;109026;1255;124904;-81
2023/10/28 12:18:06;;;;;;;;;;;;;;;9.22;77.48;99988.93;109126;1255;58894;-80
2023/10/28 12:20:33;;;;;;;;;;;;;;;9.25;77.46;99990.59;109128;1261;75217;-80
2023/10/28 12:22:59;;;;;;;;;;;;;;;9.29;77.25;99996.06;108094;1255;124381;-80
2023/10/28 12:25:26;;;;;;;;;;;;;;;9.32;76.95;99996.30;105897;1256;71387;-80
2023/10/28 12:27:53;;;;;;;;;;;;;;;9.35;76.75;99999.33;105765;1256;124359;-80
2023/10/28 12:30:19;;;;;;;;;;;;;;;9.27;76.48;100000.77;105982;1258;64855;-80
2023/10/28 12:32:49;;;;;;;;;;;;;;;9.22;76.45;100000.66;105934;1256;74717;-81
2023/10/28 12:35:16;;;;;;;;;;;;;;;9.21;76.60;100003.09;107592;1255;123959;-80
2023/10/28 12:37:42;;;;;;;;;;;;;;;9.20;76.56;100004.31;105949;1256;71047;-81
2023/10/28 12:40:09;;;;;;;;;;;;;;;9.14;76.41;100002.29;105724;1259;125507;-80
2023/10/28 12:42:36;;;;;;;;;;;;;;;9.14;76.60;100004.91;105933;1255;61380;-80